Time,TemperatureF,DewpointF,PressureIn,WindDirection,WindDirectionDegrees,WindSpeedMPH,WindSpeedGustMPH,Humidity,HourlyPrecipIn,Conditions,Clouds,dailyrainin,SoftwareType,DateUTC
2013-04-13 00:02:00,29.1,25.7,29.82,West,270,1.6,1.6,87,0.00,CLR,CLR,0.00,WeatherDisplay:10.37,2013-04-13 05:02:00,
2013-04-13 00:07:00,29.1,25.7,29.83,West,270,0.3,1.2,87,0.00,CLR,CLR,0.00,WeatherDisplay:10.37,2013-04-13 05:07:00,
2013-04-13 00:13:00,29.3,25.9,29.83,WNW,292,0.7,2.3,87,0.00,CLR,CLR,0.00,WeatherDisplay:10.37,2013-04-13 05:13:00,
2013-04-13 00:18:00,29.3,25.9,29.83,West,270,0.4,2.3,87,0.00,CLR,CLR,0.00,WeatherDisplay:10.37,2013-04-13 05:18:00,
2013-04-13 00:23:00,29.1,25.7,29.83,WNW,292,0.0,0.0,87,0.00,CLR,CLR,0.00,WeatherDisplay:10.37,2013-04-13 05:23:00,
2013-04-13 00:28:00,29.1,25.7,29.83,West,270,0.3,0.0,87,0.00,CLR,CLR,0.00,WeatherDisplay:10.37,2013-04-13 05:28:00,
2013-04-13 00:33:00,29.1,25.7,29.83,West,270,0.4,2.3,87,0.00,CLR,CLR,0.00,WeatherDisplay:10.37,2013-04-13 05:33:00,
2013-04-13 00:39:00,29.1,25.7,29.83,West,270,0.3,1.2,87,0.00,CLR,CLR,0.00,WeatherDisplay:10.37,2013-04-13 05:39:00,
2013-04-13 00:44:00,29.1,25.7,29.83,West,270,0.7,1.2,87,0.00,CLR,CLR,0.00,WeatherDisplay:10.37,2013-04-13 05:44:00,
2013-04-13 00:49:00,29.1,25.7,29.83,West,270,0.9,2.2,87,0.00,CLR,CLR,0.00,WeatherDisplay:10.37,2013-04-13 05:49:00,
2013-04-13 00:54:00,28.9,25.6,29.83,West,270,1.2,2.3,87,0.00,CLR,CLR,0.00,WeatherDisplay:10.37,2013-04-13 05:54:00,
2013-04-13 00:59:00,29.1,25.7,29.83,West,270,1.1,2.3,87,0.00,CLR,CLR,0.00,WeatherDisplay:10.37,2013-04-13 05:59:00,
2013-04-13 01:04:00,29.1,26.0,29.83,West,270,1.9,3.5,88,0.00,CLR,CLR,0.00,WeatherDisplay:10.37,2013-04-13 06:04:00,
2013-04-13 01:09:00,29.1,26.0,29.83,West,270,0.1,3.5,88,0.00,CLR,CLR,0.00,WeatherDisplay:10.37,2013-04-13 06:09:00,
2013-04-13 01:14:00,29.1,26.0,29.83,West,270,1.3,3.5,88,0.00,CLR,CLR,0.00,WeatherDisplay:10.37,2013-04-13 06:14:00,
2013-04-13 01:19:00,29.1,26.0,29.84,WSW,248,0.8,2.5,88,0.00,CLR,CLR,0.00,WeatherDisplay:10.37,2013-04-13 06:19:00,
2013-04-13 01:25:00,29.1,26.0,29.83,West,270,1.1,1.2,88,0.00,CLR,CLR,0.00,WeatherDisplay:10.37,2013-04-13 06:25:00,
2013-04-13 01:30:00,29.1,26.0,29.82,West,270,2.2,2.7,88,0.00,CLR,CLR,0.00,WeatherDisplay:10.37,2013-04-13 06:30:00,
2013-04-13 01:35:00,29.1,25.7,29.83,WSW,248,0.8,3.5,87,0.00,CLR,CLR,0.00,WeatherDisplay:10.37,2013-04-13 06:35:00,
2013-04-13 01:40:00,29.1,25.7,29.83,West,270,1.4,3.5,87,0.00,CLR,CLR,0.00,WeatherDisplay:10.37,2013-04-13 06:40:00,
2013-04-13 01:45:00,29.1,25.7,29.82,West,270,0.9,2.3,87,0.00,CLR,CLR,0.00,WeatherDisplay:10.37,2013-04-13 06:45:00,
2013-04-13 01:51:00,29.1,25.7,29.83,WNW,292,3.9,5.8,87,0.00,CLR,CLR,0.00,WeatherDisplay:10.37,2013-04-13 06:51:00,
2013-04-13 01:56:00,29.1,25.7,29.83,WNW,292,1.7,2.3,87,0.00,CLR,CLR,0.00,WeatherDisplay:10.37,2013-04-13 06:56:00,
2013-04-13 02:02:00,29.1,25.7,29.83,West,270,1.9,2.3,87,0.00,CLR,CLR,0.00,WeatherDisplay:10.37,2013-04-13 07:02:00,
2013-04-13 02:08:00,29.1,26.0,29.83,West,270,1.8,3.5,88,0.00,CLR,CLR,0.00,WeatherDisplay:10.37,2013-04-13 07:08:00,
2013-04-13 02:13:00,29.1,26.0,29.83,West,270,1.1,2.7,88,0.00,CLR,CLR,0.00,WeatherDisplay:10.37,2013-04-13 07:13:00,
2013-04-13 02:18:00,28.9,25.8,29.82,West,270,2.9,4.6,88,0.00,CLR,CLR,0.00,WeatherDisplay:10.37,2013-04-13 07:18:00,
2013-04-13 02:23:00,28.9,25.8,29.82,West,270,1.7,3.5,88,0.00,CLR,CLR,0.00,WeatherDisplay:10.37,2013-04-13 07:23:00,
2013-04-13 02:29:00,28.8,25.7,29.82,West,270,3.3,5.8,88,0.00,CLR,CLR,0.00,WeatherDisplay:10.37,2013-04-13 07:29:00,
2013-04-13 02:34:00,28.8,25.7,29.81,West,270,1.9,3.5,88,0.00,CLR,CLR,0.00,WeatherDisplay:10.37,2013-04-13 07:34:00,
2013-04-13 02:39:00,28.8,25.7,29.82,WNW,292,1.5,4.6,88,0.00,CLR,CLR,0.00,WeatherDisplay:10.37,2013-04-13 07:39:00,
2013-04-13 02:44:00,28.8,25.7,29.82,West,270,1.4,2.3,88,0.00,CLR,CLR,0.00,WeatherDisplay:10.37,2013-04-13 07:44:00,
2013-04-13 02:49:00,28.8,25.7,29.81,West,270,1.1,2.3,88,0.00,CLR,CLR,0.00,WeatherDisplay:10.37,2013-04-13 07:49:00,
2013-04-13 02:55:00,28.8,25.7,29.82,West,270,0.5,2.3,88,0.00,CLR,CLR,0.00,WeatherDisplay:10.37,2013-04-13 07:55:00,
2013-04-13 03:00:00,28.8,25.7,29.82,West,270,0.0,1.2,88,0.00,CLR,CLR,0.00,WeatherDisplay:10.37,2013-04-13 08:00:00,
2013-04-13 03:05:00,28.8,25.7,29.81,West,270,1.1,3.5,88,0.00,CLR,CLR,0.00,WeatherDisplay:10.37,2013-04-13 08:05:00,
2013-04-13 03:10:00,28.8,25.7,29.81,West,270,0.0,0.0,88,0.00,CLR,CLR,0.00,WeatherDisplay:10.37,2013-04-13 08:10:00,
2013-04-13 03:15:00,28.9,25.8,29.81,West,270,0.7,1.2,88,0.00,CLR,CLR,0.00,WeatherDisplay:10.37,2013-04-13 08:15:00,
2013-04-13 03:22:00,28.9,25.8,29.82,WNW,292,1.8,1.8,88,0.00,CLR,CLR,0.00,WeatherDisplay:10.37,2013-04-13 08:22:00,
2013-04-13 03:27:00,28.9,25.8,29.82,West,270,2.3,3.5,88,0.00,CLR,CLR,0.00,WeatherDisplay:10.37,2013-04-13 08:27:00,
2013-04-13 03:32:00,28.8,25.7,29.82,WNW,292,1.6,3.5,88,0.00,CLR,CLR,0.00,WeatherDisplay:10.37,2013-04-13 08:32:00,
2013-04-13 03:37:00,28.9,25.8,29.81,West,270,2.3,3.5,88,0.00,CLR,CLR,0.00,WeatherDisplay:10.37,2013-04-13 08:37:00,
2013-04-13 03:43:00,28.9,26.1,29.82,WNW,292,2.5,3.5,89,0.00,CLR,CLR,0.00,WeatherDisplay:10.37,2013-04-13 08:43:00,
2013-04-13 03:48:00,28.8,25.9,29.82,West,270,3.9,5.8,89,0.00,CLR,CLR,0.00,WeatherDisplay:10.37,2013-04-13 08:48:00,
2013-04-13 03:53:00,28.8,25.9,29.82,NW,315,3.9,5.1,89,0.00,CLR,CLR,0.00,WeatherDisplay:10.37,2013-04-13 08:53:00,
2013-04-13 03:58:00,28.8,25.7,29.82,WNW,292,2.2,4.6,88,0.00,CLR,CLR,0.00,WeatherDisplay:10.37,2013-04-13 08:58:00,
2013-04-13 04:03:00,28.6,25.5,29.82,West,270,3.2,4.6,88,0.00,CLR,CLR,0.00,WeatherDisplay:10.37,2013-04-13 09:03:00,
2013-04-13 04:09:00,28.6,25.5,29.82,West,270,7.2,9.2,88,0.00,CLR,CLR,0.00,WeatherDisplay:10.37,2013-04-13 09:09:00,
2013-04-13 04:14:00,28.2,25.1,29.82,NW,315,4.2,5.8,88,0.00,CLR,CLR,0.00,WeatherDisplay:10.37,2013-04-13 09:14:00,
2013-04-13 04:19:00,28.2,25.1,29.82,West,270,3.7,4.6,88,0.00,CLR,CLR,0.00,WeatherDisplay:10.37,2013-04-13 09:19:00,
2013-04-13 04:24:00,28.0,24.9,29.82,West,270,1.8,2.3,88,0.00,CLR,CLR,0.00,WeatherDisplay:10.37,2013-04-13 09:24:00,
2013-04-13 04:30:00,28.0,24.9,29.82,WNW,292,2.1,3.4,88,0.00,CLR,CLR,0.00,WeatherDisplay:10.37,2013-04-13 09:30:00,
2013-04-13 04:35:00,28.0,24.9,29.82,WNW,292,2.2,4.6,88,0.00,CLR,CLR,0.00,WeatherDisplay:10.37,2013-04-13 09:35:00,
2013-04-13 04:40:00,27.7,24.6,29.82,WNW,292,4.6,4.6,88,0.00,CLR,CLR,0.00,WeatherDisplay:10.37,2013-04-13 09:40:00,
2013-04-13 04:45:00,27.7,24.6,29.82,WNW,292,3.0,3.5,88,0.00,CLR,CLR,0.00,WeatherDisplay:10.37,2013-04-13 09:45:00,
2013-04-13 04:50:00,27.7,24.6,29.82,WNW,292,2.8,4.6,88,0.00,CLR,CLR,0.00,WeatherDisplay:10.37,2013-04-13 09:50:00,
2013-04-13 04:55:00,27.5,24.4,29.82,West,270,4.3,4.6,88,0.00,CLR,CLR,0.00,WeatherDisplay:10.37,2013-04-13 09:55:00,
2013-04-13 05:00:00,27.3,24.2,29.82,WNW,292,1.6,3.5,88,0.00,CLR,CLR,0.00,WeatherDisplay:10.37,2013-04-13 10:00:00,
2013-04-13 05:05:00,27.1,24.1,29.82,West,270,1.3,3.5,88,0.00,CLR,CLR,0.00,WeatherDisplay:10.37,2013-04-13 10:05:00,
2013-04-13 05:11:00,27.1,24.1,29.82,West,270,1.8,2.3,88,0.00,CLR,CLR,0.00,WeatherDisplay:10.37,2013-04-13 10:11:00,
2013-04-13 05:16:00,26.8,23.7,29.83,WNW,292,2.0,3.5,88,0.00,CLR,CLR,0.00,WeatherDisplay:10.37,2013-04-13 10:16:00,
2013-04-13 05:22:00,26.6,23.5,29.83,West,270,2.2,4.6,88,0.00,CLR,CLR,0.00,WeatherDisplay:10.37,2013-04-13 10:22:00,
2013-04-13 05:27:00,26.4,23.3,29.82,WNW,292,1.2,3.6,88,0.00,CLR,CLR,0.00,WeatherDisplay:10.37,2013-04-13 10:27:00,
2013-04-13 05:32:00,26.4,23.3,29.83,West,270,2.5,3.5,88,0.00,CLR,CLR,0.00,WeatherDisplay:10.37,2013-04-13 10:32:00,
2013-04-13 05:37:00,26.4,23.3,29.83,West,270,2.8,3.5,88,0.00,CLR,CLR,0.00,WeatherDisplay:10.37,2013-04-13 10:37:00,
2013-04-13 05:43:00,26.4,23.3,29.83,WNW,292,2.5,3.5,88,0.00,CLR,CLR,0.00,WeatherDisplay:10.37,2013-04-13 10:43:00,
2013-04-13 05:48:00,26.4,23.3,29.83,WNW,292,2.1,3.5,88,0.00,CLR,CLR,0.00,WeatherDisplay:10.37,2013-04-13 10:48:00,
2013-04-13 05:53:00,26.2,23.2,29.83,West,270,1.2,2.3,88,0.00,CLR,CLR,0.00,WeatherDisplay:10.37,2013-04-13 10:53:00,
2013-04-13 05:58:00,25.9,22.8,29.83,WNW,292,2.0,3.5,88,0.00,CLR,CLR,0.00,WeatherDisplay:10.37,2013-04-13 10:58:00,
2013-04-13 06:03:00,25.9,22.8,29.83,West,270,0.3,1.2,88,0.00,CLR,CLR,0.00,WeatherDisplay:10.37,2013-04-13 11:03:00,
2013-04-13 06:09:00,26.1,23.3,29.83,West,270,1.1,2.3,89,0.00,CLR,CLR,0.00,WeatherDisplay:10.37,2013-04-13 11:09:00,
2013-04-13 06:14:00,26.2,23.4,29.83,West,270,2.3,3.5,89,0.00,CLR,CLR,0.00,WeatherDisplay:10.37,2013-04-13 11:14:00,
2013-04-13 06:21:00,26.4,23.6,29.83,WNW,292,1.2,3.5,89,0.00,CLR,CLR,0.00,WeatherDisplay:10.37,2013-04-13 11:21:00,
2013-04-13 06:26:00,26.6,23.8,29.83,West,270,1.7,3.5,89,0.00,CLR,CLR,0.00,WeatherDisplay:10.37,2013-04-13 11:26:00,
2013-04-13 06:32:00,26.8,24.0,29.83,West,270,1.4,3.5,89,0.00,CLR,CLR,0.00,WeatherDisplay:10.37,2013-04-13 11:32:00,
2013-04-13 06:37:00,27.0,24.2,29.83,West,270,1.6,3.5,89,0.00,CLR,CLR,0.00,WeatherDisplay:10.37,2013-04-13 11:37:00,
2013-04-13 06:42:00,27.1,24.1,29.84,West,270,3.7,4.6,88,0.00,CLR,CLR,0.00,WeatherDisplay:10.37,2013-04-13 11:42:00,
2013-04-13 06:47:00,27.3,24.2,29.84,WNW,292,4.3,5.8,88,0.00,CLR,CLR,0.00,WeatherDisplay:10.37,2013-04-13 11:47:00,
2013-04-13 06:52:00,27.3,24.2,29.84,West,270,1.8,6.0,88,0.00,CLR,CLR,0.00,WeatherDisplay:10.37,2013-04-13 11:52:00,
2013-04-13 06:57:00,27.7,24.6,29.84,West,270,1.9,3.5,88,0.00,CLR,CLR,0.00,WeatherDisplay:10.37,2013-04-13 11:57:00,
2013-04-13 07:03:00,27.7,24.6,29.84,West,270,1.3,2.3,88,0.00,CLR,CLR,0.00,WeatherDisplay:10.37,2013-04-13 12:03:00,
2013-04-13 07:08:00,27.7,24.6,29.84,West,270,2.0,3.5,88,0.00,CLR,CLR,0.00,WeatherDisplay:10.37,2013-04-13 12:08:00,
2013-04-13 07:13:00,28.0,24.7,29.84,West,270,2.6,3.5,87,0.00,CLR,CLR,0.00,WeatherDisplay:10.37,2013-04-13 12:13:00,
2013-04-13 07:19:00,28.0,24.7,29.84,West,270,3.0,3.5,87,0.00,CLR,CLR,0.00,WeatherDisplay:10.37,2013-04-13 12:19:00,
2013-04-13 07:24:00,28.2,24.8,29.84,WNW,292,1.3,3.5,87,0.00,CLR,CLR,0.00,WeatherDisplay:10.37,2013-04-13 12:24:00,
2013-04-13 07:29:00,28.6,25.2,29.84,West,270,1.6,5.8,87,0.00,CLR,CLR,0.00,WeatherDisplay:10.37,2013-04-13 12:29:00,
2013-04-13 07:34:00,28.8,25.1,29.85,West,270,2.0,2.3,86,0.00,CLR,CLR,0.00,WeatherDisplay:10.37,2013-04-13 12:34:00,
2013-04-13 07:39:00,29.1,25.5,29.85,West,270,2.9,5.8,86,0.00,CLR,CLR,0.00,WeatherDisplay:10.37,2013-04-13 12:39:00,
2013-04-13 07:44:00,29.3,25.4,29.85,WNW,292,2.9,3.5,85,0.00,CLR,CLR,0.00,WeatherDisplay:10.37,2013-04-13 12:44:00,
2013-04-13 07:49:00,29.7,25.7,29.85,WNW,292,3.2,5.8,85,0.00,CLR,CLR,0.00,WeatherDisplay:10.37,2013-04-13 12:49:00,
2013-04-13 07:54:00,29.8,25.9,29.85,West,270,4.8,6.9,85,0.00,CLR,CLR,0.00,WeatherDisplay:10.37,2013-04-13 12:54:00,
2013-04-13 08:00:00,30.0,25.8,29.85,WNW,292,4.2,6.5,84,0.00,CLR,CLR,0.00,WeatherDisplay:10.37,2013-04-13 13:00:00,
2013-04-13 08:05:00,30.4,25.8,29.85,WNW,292,5.2,8.1,83,0.00,CLR,CLR,0.00,WeatherDisplay:10.37,2013-04-13 13:05:00,
2013-04-13 08:10:00,30.7,26.2,29.85,WNW,292,4.2,8.1,83,0.00,CLR,CLR,0.00,WeatherDisplay:10.37,2013-04-13 13:10:00,
2013-04-13 08:15:00,30.7,25.9,29.85,West,270,5.7,8.1,82,0.00,CLR,CLR,0.00,WeatherDisplay:10.37,2013-04-13 13:15:00,
2013-04-13 08:21:00,30.7,25.6,29.85,West,270,6.4,8.1,81,0.00,CLR,CLR,0.00,WeatherDisplay:10.37,2013-04-13 13:21:00,
2013-04-13 08:27:00,30.7,25.6,29.85,WNW,292,6.5,9.2,81,0.00,CLR,CLR,0.00,WeatherDisplay:10.37,2013-04-13 13:27:00,
2013-04-13 08:32:00,30.7,25.6,29.84,NW,315,8.4,10.4,81,0.00,CLR,CLR,0.00,WeatherDisplay:10.37,2013-04-13 13:32:00,
2013-04-13 08:38:00,31.1,26.0,29.85,WNW,292,4.1,9.2,81,0.00,CLR,CLR,0.00,WeatherDisplay:10.37,2013-04-13 13:38:00,
2013-04-13 08:43:00,31.5,26.0,29.85,WNW,292,4.9,9.2,80,0.00,CLR,CLR,0.00,WeatherDisplay:10.37,2013-04-13 13:43:00,
2013-04-13 08:49:00,31.8,26.0,29.85,West,270,5.1,6.9,79,0.00,CLR,CLR,0.00,WeatherDisplay:10.37,2013-04-13 13:49:00,
2013-04-13 08:54:00,32.2,26.4,29.86,WNW,292,4.9,5.8,79,0.00,CLR,CLR,0.00,WeatherDisplay:10.37,2013-04-13 13:54:00,
2013-04-13 08:59:00,32.2,26.1,29.85,West,270,3.0,5.8,78,0.00,CLR,CLR,0.00,WeatherDisplay:10.37,2013-04-13 13:59:00,
2013-04-13 09:04:00,32.2,25.8,29.85,WNW,292,4.8,5.8,77,0.00,CLR,CLR,0.00,WeatherDisplay:10.37,2013-04-13 14:04:00,
2013-04-13 09:09:00,32.2,25.8,29.85,WNW,292,4.7,6.9,77,0.00,CLR,CLR,0.00,WeatherDisplay:10.37,2013-04-13 14:09:00,
2013-04-13 09:14:00,32.7,26.3,29.85,West,270,3.9,5.8,77,0.00,CLR,CLR,0.00,WeatherDisplay:10.37,2013-04-13 14:14:00,
2013-04-13 09:19:00,33.4,26.7,29.85,NW,315,8.4,9.2,76,0.00,CLR,CLR,0.00,WeatherDisplay:10.37,2013-04-13 14:19:00,
2013-04-13 09:24:00,34.0,27.2,29.85,West,270,4.5,5.8,76,0.00,CLR,CLR,0.00,WeatherDisplay:10.37,2013-04-13 14:24:00,
2013-04-13 09:30:00,34.3,26.6,29.86,WNW,292,7.6,11.5,73,0.00,CLR,CLR,0.00,WeatherDisplay:10.37,2013-04-13 14:30:00,
2013-04-13 09:35:00,33.6,25.9,29.86,WNW,292,7.6,9.2,73,0.00,CLR,CLR,0.00,WeatherDisplay:10.37,2013-04-13 14:35:00,
2013-04-13 09:40:00,33.6,25.9,29.86,WNW,292,4.8,6.9,73,0.00,CLR,CLR,0.00,WeatherDisplay:10.37,2013-04-13 14:40:00,
2013-04-13 09:45:00,34.2,26.4,29.86,West,270,4.8,5.8,73,0.00,CLR,CLR,0.00,WeatherDisplay:10.37,2013-04-13 14:45:00,
2013-04-13 09:50:00,34.7,26.9,29.86,WNW,292,5.5,8.1,73,0.00,CLR,CLR,0.00,WeatherDisplay:10.37,2013-04-13 14:50:00,
2013-04-13 09:55:00,34.9,26.4,29.86,NNW,338,5.5,6.9,71,0.00,CLR,CLR,0.00,WeatherDisplay:10.37,2013-04-13 14:55:00,
2013-04-13 10:01:00,35.2,26.4,29.86,West,270,5.9,9.2,70,0.00,CLR,CLR,0.00,WeatherDisplay:10.37,2013-04-13 15:01:00,
2013-04-13 10:06:00,35.4,26.3,29.86,WNW,292,5.5,9.2,69,0.00,CLR,CLR,0.00,WeatherDisplay:10.37,2013-04-13 15:06:00,
2013-04-13 10:11:00,35.8,26.6,29.87,West,270,3.1,5.8,69,0.00,CLR,CLR,0.00,WeatherDisplay:10.37,2013-04-13 15:11:00,
2013-04-13 10:16:00,36.1,26.9,29.86,West,270,6.7,10.4,69,0.00,CLR,CLR,0.00,WeatherDisplay:10.37,2013-04-13 15:16:00,
2013-04-13 10:21:00,36.1,26.6,29.86,West,270,5.9,10.4,68,0.00,CLR,CLR,0.00,WeatherDisplay:10.37,2013-04-13 15:21:00,
2013-04-13 10:27:00,36.1,26.6,29.86,West,270,6.2,8.1,68,0.00,CLR,CLR,0.00,WeatherDisplay:10.37,2013-04-13 15:27:00,
2013-04-13 10:32:00,36.7,27.1,29.86,WSW,248,4.7,6.7,68,0.02,RA,RA,0.02,WeatherDisplay:10.37,2013-04-13 15:32:00,
2013-04-13 10:37:00,36.7,26.7,29.86,West,270,3.8,6.9,67,0.02,RA,RA,0.02,WeatherDisplay:10.37,2013-04-13 15:37:00,
2013-04-13 10:43:00,36.7,26.0,29.86,West,270,5.6,6.9,65,0.02,CLR,CLR,0.02,WeatherDisplay:10.37,2013-04-13 15:43:00,
2013-04-13 10:48:00,36.3,26.0,29.87,NW,315,5.8,10.4,66,0.02,CLR,CLR,0.02,WeatherDisplay:10.37,2013-04-13 15:48:00,
2013-04-13 10:53:00,36.1,25.9,29.87,NW,315,6.1,9.2,66,0.02,CLR,CLR,0.02,WeatherDisplay:10.37,2013-04-13 15:53:00,
2013-04-13 10:58:00,36.3,25.7,29.87,WNW,292,6.6,6.6,65,0.02,CLR,CLR,0.02,WeatherDisplay:10.37,2013-04-13 15:58:00,
2013-04-13 11:03:00,36.3,25.7,29.87,WNW,292,3.5,6.9,65,0.02,CLR,CLR,0.02,WeatherDisplay:10.37,2013-04-13 16:03:00,
2013-04-13 11:08:00,36.3,25.7,29.87,West,270,4.8,5.8,65,0.02,CLR,CLR,0.02,WeatherDisplay:10.37,2013-04-13 16:08:00,
2013-04-13 11:13:00,36.5,25.5,29.87,WNW,292,7.1,11.5,64,0.02,CLR,CLR,0.02,WeatherDisplay:10.37,2013-04-13 16:13:00,
2013-04-13 11:19:00,37.0,26.0,29.87,WNW,292,5.1,8.1,64,0.02,CLR,CLR,0.02,WeatherDisplay:10.37,2013-04-13 16:19:00,
2013-04-13 11:24:00,37.2,25.8,29.87,WNW,292,5.6,6.9,63,0.02,CLR,CLR,0.02,WeatherDisplay:10.37,2013-04-13 16:24:00,
2013-04-13 11:29:00,36.9,25.0,29.87,West,270,5.7,9.2,62,0.00,CLR,CLR,0.02,WeatherDisplay:10.37,2013-04-13 16:29:00,
2013-04-13 11:34:00,36.3,24.9,29.87,West,270,5.3,8.1,63,0.00,CLR,CLR,0.02,WeatherDisplay:10.37,2013-04-13 16:34:00,
2013-04-13 11:39:00,36.0,25.0,29.87,WNW,292,5.7,9.2,64,0.00,CLR,CLR,0.02,WeatherDisplay:10.37,2013-04-13 16:39:00,
2013-04-13 11:45:00,36.3,25.7,29.87,NNW,338,4.3,6.9,65,0.00,CLR,CLR,0.02,WeatherDisplay:10.37,2013-04-13 16:45:00,
2013-04-13 11:50:00,37.2,26.9,29.88,NNW,338,3.9,4.6,66,0.00,CLR,CLR,0.02,WeatherDisplay:10.37,2013-04-13 16:50:00,
2013-04-13 11:55:00,37.6,27.2,29.87,NNW,338,4.0,6.3,66,0.00,CLR,CLR,0.02,WeatherDisplay:10.37,2013-04-13 16:55:00,
2013-04-13 12:01:00,37.8,27.4,29.87,NNW,338,4.5,5.8,66,0.00,CLR,CLR,0.02,WeatherDisplay:10.37,2013-04-13 17:01:00,
2013-04-13 12:06:00,37.9,27.6,29.87,NNW,338,2.9,3.5,66,0.00,CLR,CLR,0.02,WeatherDisplay:10.37,2013-04-13 17:06:00,
2013-04-13 12:12:00,38.8,28.1,29.88,NNW,338,3.9,4.6,65,0.00,CLR,CLR,0.02,WeatherDisplay:10.37,2013-04-13 17:12:00,
2013-04-13 12:17:00,38.8,27.7,29.88,NNE,22,4.0,5.8,64,0.00,CLR,CLR,0.02,WeatherDisplay:10.37,2013-04-13 17:17:00,
2013-04-13 12:22:00,38.8,27.7,29.88,North,0,3.9,5.8,64,0.00,CLR,CLR,0.02,WeatherDisplay:10.37,2013-04-13 17:22:00,
2013-04-13 12:28:00,37.9,26.5,29.88,NNW,338,4.7,5.8,63,0.00,CLR,CLR,0.02,WeatherDisplay:10.37,2013-04-13 17:28:00,
2013-04-13 12:33:00,37.2,26.2,29.88,NW,315,4.5,6.9,64,0.00,CLR,CLR,0.02,WeatherDisplay:10.37,2013-04-13 17:33:00,
2013-04-13 12:38:00,37.0,26.4,29.88,NW,315,6.0,8.1,65,0.00,CLR,CLR,0.02,WeatherDisplay:10.37,2013-04-13 17:38:00,
2013-04-13 12:43:00,37.0,26.4,29.88,NNW,338,4.9,5.8,65,0.00,CLR,CLR,0.02,WeatherDisplay:10.37,2013-04-13 17:43:00,
2013-04-13 12:49:00,36.9,26.2,29.88,WNW,292,3.7,5.8,65,0.00,CLR,CLR,0.02,WeatherDisplay:10.37,2013-04-13 17:49:00,
2013-04-13 12:54:00,37.0,26.4,29.88,NW,315,5.1,6.9,65,0.00,CLR,CLR,0.02,WeatherDisplay:10.37,2013-04-13 17:54:00,
2013-04-13 12:59:00,37.6,26.9,29.88,NNW,338,6.3,8.1,65,0.00,CLR,CLR,0.02,WeatherDisplay:10.37,2013-04-13 17:59:00,
2013-04-13 13:04:00,38.8,27.7,29.88,NNW,338,3.4,4.6,64,0.00,CLR,CLR,0.02,WeatherDisplay:10.37,2013-04-13 18:04:00,
2013-04-13 13:09:00,39.9,28.3,29.88,NW,315,5.9,8.1,63,0.00,CLR,CLR,0.02,WeatherDisplay:10.37,2013-04-13 18:09:00,
2013-04-13 13:15:00,40.8,28.8,29.89,North,0,3.3,4.6,62,0.00,CLR,CLR,0.02,WeatherDisplay:10.37,2013-04-13 18:15:00,
2013-04-13 13:20:00,42.1,29.6,29.88,NNW,338,6.2,6.9,61,0.00,CLR,CLR,0.02,WeatherDisplay:10.37,2013-04-13 18:20:00,
2013-04-13 13:25:00,43.5,29.7,29.88,WNW,292,4.5,8.1,58,0.00,CLR,CLR,0.02,WeatherDisplay:10.37,2013-04-13 18:25:00,
2013-04-13 13:27:00,43.9,29.2,29.88,NNW,338,4.7,5.8,56,0.00,CLR,CLR,0.02,WeatherDisplay:10.37,2013-04-13 18:27:00,
2013-04-13 13:28:00,43.9,29.2,29.88,West,270,6.4,6.5,56,0.00,CLR,CLR,0.02,WeatherDisplay:10.37,2013-04-13 18:28:00,
2013-04-13 13:29:00,44.1,28.5,29.88,WNW,292,5.8,8.9,54,0.00,CLR,CLR,0.02,WeatherDisplay:10.37,2013-04-13 18:29:00,
2013-04-13 13:34:00,43.0,27.0,29.88,West,270,6.2,8.1,53,0.00,CLR,CLR,0.02,WeatherDisplay:10.37,2013-04-13 18:34:00,
2013-04-13 13:40:00,42.4,26.5,29.88,NW,315,5.8,8.1,53,0.00,CLR,CLR,0.02,WeatherDisplay:10.37,2013-04-13 18:40:00,
2013-04-13 13:45:00,42.4,27.0,29.88,West,270,2.5,6.9,54,0.00,CLR,CLR,0.02,WeatherDisplay:10.37,2013-04-13 18:45:00,
2013-04-13 13:50:00,42.4,26.5,29.88,NW,315,4.0,5.8,53,0.00,CLR,CLR,0.02,WeatherDisplay:10.37,2013-04-13 18:50:00,
2013-04-13 13:55:00,41.9,26.4,29.88,West,270,5.3,8.1,54,0.00,CLR,CLR,0.02,WeatherDisplay:10.37,2013-04-13 18:55:00,
2013-04-13 14:00:00,41.2,25.8,29.88,WNW,292,3.7,4.6,54,0.00,CLR,CLR,0.02,WeatherDisplay:10.37,2013-04-13 19:00:00,
2013-04-13 14:06:00,41.2,25.8,29.88,NW,315,5.7,8.1,54,0.00,CLR,CLR,0.02,WeatherDisplay:10.37,2013-04-13 19:06:00,
2013-04-13 14:11:00,40.8,25.4,29.88,West,270,6.4,10.4,54,0.00,CLR,CLR,0.02,WeatherDisplay:10.37,2013-04-13 19:11:00,
2013-04-13 14:16:00,40.6,25.3,29.89,NNW,338,4.1,4.7,54,0.00,CLR,CLR,0.02,WeatherDisplay:10.37,2013-04-13 19:16:00,
2013-04-13 14:22:00,40.8,25.9,29.89,WSW,248,3.6,5.8,55,0.00,CLR,CLR,0.02,WeatherDisplay:10.37,2013-04-13 19:22:00,
2013-04-13 14:27:00,41.4,26.4,29.89,NW,315,7.2,8.9,55,0.00,CLR,CLR,0.02,WeatherDisplay:10.37,2013-04-13 19:27:00,
2013-04-13 14:32:00,41.9,26.0,29.89,NW,315,4.0,5.8,53,0.00,CLR,CLR,0.02,WeatherDisplay:10.37,2013-04-13 19:32:00,
2013-04-13 14:37:00,42.4,26.0,29.88,NW,315,6.4,8.1,52,0.00,CLR,CLR,0.02,WeatherDisplay:10.37,2013-04-13 19:37:00,
2013-04-13 14:42:00,42.4,26.0,29.88,West,270,5.3,6.9,52,0.00,CLR,CLR,0.02,WeatherDisplay:10.37,2013-04-13 19:42:00,
2013-04-13 14:47:00,42.6,25.7,29.88,West,270,3.7,6.9,51,0.00,CLR,CLR,0.02,WeatherDisplay:10.37,2013-04-13 19:47:00,
2013-04-13 14:53:00,43.0,26.1,29.88,WSW,248,6.0,9.2,51,0.00,CLR,CLR,0.02,WeatherDisplay:10.37,2013-04-13 19:53:00,
2013-04-13 14:58:00,43.9,26.9,29.88,West,270,2.2,3.5,51,0.00,CLR,CLR,0.02,WeatherDisplay:10.37,2013-04-13 19:58:00,
2013-04-13 15:03:00,44.8,26.3,29.88,WNW,292,2.0,3.5,48,0.00,CLR,CLR,0.02,WeatherDisplay:10.37,2013-04-13 20:03:00,
2013-04-13 15:09:00,45.0,26.9,29.88,WSW,248,1.9,2.3,49,0.00,CLR,CLR,0.02,WeatherDisplay:10.37,2013-04-13 20:09:00,
2013-04-13 15:14:00,44.8,26.3,29.88,West,270,3.0,4.6,48,0.00,CLR,CLR,0.02,WeatherDisplay:10.37,2013-04-13 20:14:00,
2013-04-13 15:19:00,44.4,25.4,29.88,West,270,5.3,10.4,47,0.00,CLR,CLR,0.02,WeatherDisplay:10.37,2013-04-13 20:19:00,
2013-04-13 15:24:00,43.5,25.1,29.88,West,270,4.1,4.6,48,0.00,CLR,CLR,0.02,WeatherDisplay:10.37,2013-04-13 20:24:00,
2013-04-13 15:29:00,43.5,25.1,29.88,WNW,292,0.7,3.5,48,0.00,CLR,CLR,0.02,WeatherDisplay:10.37,2013-04-13 20:29:00,
2013-04-13 15:34:00,43.9,25.9,29.88,West,270,5.5,8.1,49,0.00,CLR,CLR,0.02,WeatherDisplay:10.37,2013-04-13 20:34:00,
2013-04-13 15:40:00,43.9,25.4,29.88,West,270,1.3,3.5,48,0.00,CLR,CLR,0.02,WeatherDisplay:10.37,2013-04-13 20:40:00,
2013-04-13 15:45:00,44.4,25.9,29.88,NW,315,2.4,5.8,48,0.00,CLR,CLR,0.02,WeatherDisplay:10.37,2013-04-13 20:45:00,
2013-04-13 15:50:00,44.4,25.4,29.88,West,270,1.2,3.5,47,0.00,CLR,CLR,0.02,WeatherDisplay:10.37,2013-04-13 20:50:00,
2013-04-13 15:55:00,44.4,24.9,29.87,NNW,338,2.3,4.6,46,0.00,CLR,CLR,0.02,WeatherDisplay:10.37,2013-04-13 20:55:00,
2013-04-13 16:00:00,44.4,25.4,29.87,NW,315,2.7,5.8,47,0.00,CLR,CLR,0.02,WeatherDisplay:10.37,2013-04-13 21:00:00,
2013-04-13 16:05:00,45.0,25.9,29.87,West,270,2.0,4.6,47,0.00,CLR,CLR,0.02,WeatherDisplay:10.37,2013-04-13 21:05:00,
2013-04-13 16:10:00,44.8,24.2,29.87,NW,315,3.4,4.6,44,0.00,CLR,CLR,0.02,WeatherDisplay:10.37,2013-04-13 21:10:00,
2013-04-13 16:15:00,43.7,23.2,29.87,WNW,292,5.7,8.1,44,0.00,CLR,CLR,0.02,WeatherDisplay:10.37,2013-04-13 21:15:00,
2013-04-13 16:21:00,42.3,22.4,29.87,West,270,7.0,9.2,45,0.00,CLR,CLR,0.02,WeatherDisplay:10.37,2013-04-13 21:21:00,
2013-04-13 16:27:00,41.7,22.4,29.87,NW,315,2.5,3.5,46,0.00,CLR,CLR,0.02,WeatherDisplay:10.37,2013-04-13 21:27:00,
2013-04-13 16:32:00,41.5,22.3,29.87,NW,315,5.2,8.1,46,0.00,CLR,CLR,0.02,WeatherDisplay:10.37,2013-04-13 21:32:00,
2013-04-13 16:37:00,41.2,22.5,29.87,WNW,292,3.6,6.9,47,0.00,CLR,CLR,0.02,WeatherDisplay:10.37,2013-04-13 21:37:00,
2013-04-13 16:42:00,41.5,23.3,29.87,WNW,292,0.4,3.4,48,0.00,CLR,CLR,0.02,WeatherDisplay:10.37,2013-04-13 21:42:00,
2013-04-13 16:47:00,42.4,23.6,29.87,NW,315,3.6,6.3,47,0.00,CLR,CLR,0.02,WeatherDisplay:10.37,2013-04-13 21:47:00,
2013-04-13 16:53:00,42.1,23.3,29.87,NE,45,2.8,4.6,47,0.00,CLR,CLR,0.02,WeatherDisplay:10.37,2013-04-13 21:53:00,
2013-04-13 16:58:00,42.1,23.8,29.87,NW,315,3.3,5.4,48,0.00,CLR,CLR,0.02,WeatherDisplay:10.37,2013-04-13 21:58:00,
2013-04-13 17:03:00,41.9,23.6,29.87,NE,45,3.8,4.6,48,0.00,CLR,CLR,0.02,WeatherDisplay:10.37,2013-04-13 22:03:00,
2013-04-13 17:08:00,42.1,24.3,29.87,NNE,22,1.1,3.5,49,0.00,CLR,CLR,0.02,WeatherDisplay:10.37,2013-04-13 22:08:00,
2013-04-13 17:13:00,42.1,23.8,29.87,NNW,338,3.5,3.6,48,0.00,CLR,CLR,0.02,WeatherDisplay:10.37,2013-04-13 22:13:00,
2013-04-13 17:18:00,42.1,24.3,29.87,North,0,3.4,3.5,49,0.00,CLR,CLR,0.02,WeatherDisplay:10.37,2013-04-13 22:18:00,
2013-04-13 17:23:00,42.1,23.8,29.88,NW,315,0.4,1.2,48,0.00,CLR,CLR,0.02,WeatherDisplay:10.37,2013-04-13 22:23:00,
2013-04-13 17:28:00,42.1,23.8,29.88,NNE,22,3.3,4.6,48,0.00,CLR,CLR,0.02,WeatherDisplay:10.37,2013-04-13 22:28:00,
2013-04-13 17:33:00,41.5,23.3,29.88,NNW,338,1.8,3.5,48,0.00,CLR,CLR,0.02,WeatherDisplay:10.37,2013-04-13 22:33:00,
2013-04-13 17:38:00,41.5,23.8,29.88,ENE,68,2.2,3.5,49,0.00,CLR,CLR,0.02,WeatherDisplay:10.37,2013-04-13 22:38:00,
2013-04-13 17:43:00,41.5,23.8,29.88,East,90,4.2,5.8,49,0.00,CLR,CLR,0.02,WeatherDisplay:10.37,2013-04-13 22:43:00,
2013-04-13 17:48:00,41.5,24.3,29.88,East,90,3.0,5.8,50,0.00,CLR,CLR,0.02,WeatherDisplay:10.37,2013-04-13 22:48:00,
2013-04-13 17:53:00,41.7,23.9,29.87,ESE,112,4.4,5.8,49,0.00,CLR,CLR,0.02,WeatherDisplay:10.37,2013-04-13 22:53:00,
2013-04-13 17:59:00,41.7,24.4,29.87,NE,45,4.7,4.7,50,0.00,CLR,CLR,0.02,WeatherDisplay:10.37,2013-04-13 22:59:00,
2013-04-13 18:04:00,41.2,23.4,29.88,NNE,22,3.5,5.8,49,0.00,CLR,CLR,0.02,WeatherDisplay:10.37,2013-04-13 23:04:00,
2013-04-13 18:09:00,40.6,23.4,29.88,East,90,4.3,4.6,50,0.00,CLR,CLR,0.02,WeatherDisplay:10.37,2013-04-13 23:09:00,
2013-04-13 18:14:00,40.6,23.4,29.87,NE,45,3.1,4.6,50,0.00,CLR,CLR,0.02,WeatherDisplay:10.37,2013-04-13 23:14:00,
2013-04-13 18:19:00,40.8,23.6,29.87,ESE,112,3.1,5.8,50,0.00,CLR,CLR,0.02,WeatherDisplay:10.37,2013-04-13 23:19:00,
2013-04-13 18:24:00,40.5,22.8,29.87,ENE,68,3.1,5.8,49,0.00,CLR,CLR,0.02,WeatherDisplay:10.37,2013-04-13 23:24:00,
2013-04-13 18:29:00,39.0,21.9,29.87,NE,45,1.4,6.9,50,0.00,CLR,CLR,0.02,WeatherDisplay:10.37,2013-04-13 23:29:00,
2013-04-13 18:35:00,39.0,22.4,29.87,North,0,5.6,5.8,51,0.00,CLR,CLR,0.02,WeatherDisplay:10.37,2013-04-13 23:35:00,
2013-04-13 18:40:00,40.3,23.6,29.87,NNE,22,0.8,2.5,51,0.00,CLR,CLR,0.02,WeatherDisplay:10.37,2013-04-13 23:40:00,
2013-04-13 18:45:00,42.4,24.6,29.88,ENE,68,1.6,3.5,49,0.00,CLR,CLR,0.02,WeatherDisplay:10.37,2013-04-13 23:45:00,
2013-04-13 18:50:00,44.2,25.8,29.87,NNE,22,0.0,0.0,48,0.00,CLR,CLR,0.02,WeatherDisplay:10.37,2013-04-13 23:50:00,
2013-04-13 18:55:00,45.9,25.7,29.87,NE,45,0.3,2.3,45,0.00,CLR,CLR,0.02,WeatherDisplay:10.37,2013-04-13 23:55:00,
2013-04-13 19:00:00,46.9,26.7,29.88,ENE,68,2.5,2.5,45,0.00,CLR,CLR,0.02,WeatherDisplay:10.37,2013-04-14 00:00:00,
2013-04-13 19:05:00,47.3,25.9,29.88,ENE,68,0.6,2.3,43,0.00,CLR,CLR,0.02,WeatherDisplay:10.37,2013-04-14 00:05:00,
2013-04-13 19:10:00,47.3,25.9,29.88,ENE,68,2.3,3.5,43,0.00,CLR,CLR,0.02,WeatherDisplay:10.37,2013-04-14 00:10:00,
2013-04-13 19:16:00,47.1,25.2,29.88,ESE,112,0.9,3.5,42,0.00,CLR,CLR,0.02,WeatherDisplay:10.37,2013-04-14 00:16:00,
2013-04-13 19:21:00,46.9,25.0,29.88,East,90,0.9,2.3,42,0.00,CLR,CLR,0.02,WeatherDisplay:10.37,2013-04-14 00:21:00,
2013-04-13 19:26:00,46.6,24.7,29.87,NNE,22,0.5,1.2,42,0.00,CLR,CLR,0.02,WeatherDisplay:10.37,2013-04-14 00:26:00,
2013-04-13 19:31:00,45.1,23.4,29.87,ENE,68,2.0,3.5,42,0.00,CLR,CLR,0.02,WeatherDisplay:10.37,2013-04-14 00:31:00,
2013-04-13 19:36:00,43.9,22.2,29.87,ENE,68,2.9,4.6,42,0.00,CLR,CLR,0.02,WeatherDisplay:10.37,2013-04-14 00:36:00,
2013-04-13 19:42:00,42.6,21.7,29.87,ENE,68,0.9,2.3,43,0.00,CLR,CLR,0.02,WeatherDisplay:10.37,2013-04-14 00:42:00,
2013-04-13 19:47:00,40.8,20.6,29.88,East,90,3.2,5.8,44,0.00,CLR,CLR,0.02,WeatherDisplay:10.37,2013-04-14 00:47:00,
2013-04-13 19:52:00,38.8,19.3,29.88,ESE,112,2.4,3.5,45,0.00,CLR,CLR,0.02,WeatherDisplay:10.37,2013-04-14 00:52:00,
2013-04-13 19:57:00,37.2,18.8,29.88,ESE,112,1.1,2.3,47,0.00,CLR,CLR,0.02,WeatherDisplay:10.37,2013-04-14 00:57:00,
2013-04-13 20:02:00,36.1,18.3,29.88,SE,135,1.7,3.5,48,0.00,CLR,CLR,0.02,WeatherDisplay:10.37,2013-04-14 01:02:00,
2013-04-13 20:07:00,34.9,17.6,29.89,ESE,112,0.0,0.0,49,0.00,CLR,CLR,0.02,WeatherDisplay:10.37,2013-04-14 01:07:00,
2013-04-13 20:13:00,34.2,17.4,29.89,SSE,158,0.0,2.3,50,0.00,CLR,CLR,0.02,WeatherDisplay:10.37,2013-04-14 01:13:00,
2013-04-13 20:18:00,33.3,17.1,29.89,South,180,0.2,2.3,51,0.00,CLR,CLR,0.02,WeatherDisplay:10.37,2013-04-14 01:18:00,
2013-04-13 20:23:00,32.5,16.8,29.89,South,180,0.3,2.3,52,0.00,CLR,CLR,0.02,WeatherDisplay:10.37,2013-04-14 01:23:00,
2013-04-13 20:28:00,31.8,17.0,29.89,SSE,158,0.0,0.0,54,0.00,CLR,CLR,0.02,WeatherDisplay:10.37,2013-04-14 01:28:00,
2013-04-13 20:33:00,31.3,17.0,29.90,SSE,158,0.0,0.0,55,0.00,CLR,CLR,0.02,WeatherDisplay:10.37,2013-04-14 01:33:00,
2013-04-13 20:38:00,30.7,16.9,29.90,SSE,158,0.0,0.0,56,0.00,CLR,CLR,0.02,WeatherDisplay:10.37,2013-04-14 01:38:00,
2013-04-13 20:43:00,30.2,16.8,29.90,SSE,158,0.0,0.0,57,0.00,CLR,CLR,0.02,WeatherDisplay:10.37,2013-04-14 01:43:00,
2013-04-13 20:48:00,29.8,16.8,29.90,SSE,158,0.0,0.0,58,0.00,CLR,CLR,0.02,WeatherDisplay:10.37,2013-04-14 01:48:00,
2013-04-13 20:53:00,29.5,16.9,29.90,SSE,158,0.0,0.0,59,0.00,CLR,CLR,0.02,WeatherDisplay:10.37,2013-04-14 01:53:00,
2013-04-13 20:58:00,29.1,16.6,29.90,SSE,158,0.0,0.0,59,0.00,CLR,CLR,0.02,WeatherDisplay:10.37,2013-04-14 01:58:00,
2013-04-13 21:04:00,28.6,16.4,29.91,South,180,0.5,2.3,60,0.00,CLR,CLR,0.02,WeatherDisplay:10.37,2013-04-14 02:04:00,
2013-04-13 21:09:00,28.2,16.5,29.91,SSW,202,0.0,0.0,61,0.00,CLR,CLR,0.02,WeatherDisplay:10.37,2013-04-14 02:09:00,
2013-04-13 21:14:00,27.9,16.5,29.91,South,180,0.0,0.0,62,0.00,CLR,CLR,0.02,WeatherDisplay:10.37,2013-04-14 02:14:00,
2013-04-13 21:19:00,27.7,16.7,29.91,South,180,0.0,0.0,63,0.00,CLR,CLR,0.02,WeatherDisplay:10.37,2013-04-14 02:19:00,
2013-04-13 21:24:00,27.3,16.7,29.92,South,180,0.0,0.0,64,0.00,CLR,CLR,0.02,WeatherDisplay:10.37,2013-04-14 02:24:00,
2013-04-13 21:30:00,27.1,16.6,29.91,South,180,0.0,0.0,64,0.00,CLR,CLR,0.02,WeatherDisplay:10.37,2013-04-14 02:30:00,
2013-04-13 21:35:00,26.8,16.2,29.92,South,180,0.0,0.0,64,0.00,CLR,CLR,0.02,WeatherDisplay:10.37,2013-04-14 02:35:00,
2013-04-13 21:40:00,26.4,16.2,29.92,SSE,158,0.0,0.0,65,0.00,CLR,CLR,0.02,WeatherDisplay:10.37,2013-04-14 02:40:00,
2013-04-13 21:45:00,26.2,16.4,29.92,SE,135,0.0,0.0,66,0.00,CLR,CLR,0.02,WeatherDisplay:10.37,2013-04-14 02:45:00,
2013-04-13 21:50:00,25.9,16.1,29.92,SE,135,0.0,0.0,66,0.00,CLR,CLR,0.00,WeatherDisplay:10.37,2013-04-14 02:50:00,
2013-04-13 21:55:00,25.5,16.1,29.92,SE,135,0.0,0.0,67,0.00,CLR,CLR,0.00,WeatherDisplay:10.37,2013-04-14 02:55:00,
2013-04-13 22:00:00,25.5,16.1,29.93,SE,135,0.0,0.0,67,0.00,CLR,CLR,0.00,WeatherDisplay:10.37,2013-04-14 03:00:00,
2013-04-13 22:06:00,25.2,16.1,29.93,SSE,158,0.0,0.0,68,0.00,CLR,CLR,0.00,WeatherDisplay:10.37,2013-04-14 03:06:00,
2013-04-13 22:11:00,25.0,15.9,29.93,South,180,0.0,0.0,68,0.00,CLR,CLR,0.00,WeatherDisplay:10.37,2013-04-14 03:11:00,
2013-04-13 22:16:00,24.6,15.9,29.92,East,90,0.0,0.0,69,0.00,CLR,CLR,0.00,WeatherDisplay:10.37,2013-04-14 03:16:00,
2013-04-13 22:22:00,24.4,15.7,29.93,NE,45,0.0,0.0,69,0.00,CLR,CLR,0.00,WeatherDisplay:10.37,2013-04-14 03:22:00,
2013-04-13 22:27:00,24.1,15.4,29.92,ENE,68,0.0,0.0,69,0.00,CLR,CLR,0.00,WeatherDisplay:10.37,2013-04-14 03:27:00,
2013-04-13 22:32:00,24.1,15.7,29.92,ENE,68,0.0,0.0,70,0.00,CLR,CLR,0.00,WeatherDisplay:10.37,2013-04-14 03:32:00,
2013-04-13 22:37:00,23.7,15.4,29.92,ENE,68,0.0,0.0,70,0.00,CLR,CLR,0.00,WeatherDisplay:10.37,2013-04-14 03:37:00,
2013-04-13 22:43:00,23.5,15.5,29.93,ENE,68,0.0,0.0,71,0.00,CLR,CLR,0.00,WeatherDisplay:10.37,2013-04-14 03:43:00,
2013-04-13 22:48:00,23.5,15.5,29.93,ENE,68,0.0,0.0,71,0.00,CLR,CLR,0.00,WeatherDisplay:10.37,2013-04-14 03:48:00,
2013-04-13 22:53:00,23.5,15.5,29.93,ESE,112,0.0,0.0,71,0.00,CLR,CLR,0.00,WeatherDisplay:10.37,2013-04-14 03:53:00,
2013-04-13 22:58:00,23.2,15.5,29.93,ESE,112,0.0,0.0,72,0.00,CLR,CLR,0.00,WeatherDisplay:10.37,2013-04-14 03:58:00,
2013-04-13 23:00:00,23.2,15.5,29.93,ESE,112,0.0,0.0,72,0.00,CLR,CLR,0.00,WeatherDisplay:10.37,2013-04-14 04:00:00,
2013-04-13 23:05:00,22.8,15.1,29.93,ESE,112,0.0,0.0,72,0.00,CLR,CLR,0.00,WeatherDisplay:10.37,2013-04-14 04:05:00,
2013-04-13 23:07:00,22.8,15.1,29.93,ESE,112,0.0,0.0,72,0.00,CLR,CLR,0.00,WeatherDisplay:10.37,2013-04-14 04:07:00,
2013-04-13 23:12:00,22.6,15.0,29.93,ESE,112,0.0,0.0,72,0.00,CLR,CLR,0.00,WeatherDisplay:10.37,2013-04-14 04:12:00,
2013-04-13 23:17:00,22.6,15.0,29.94,SSE,158,0.0,0.0,72,0.00,CLR,CLR,0.00,WeatherDisplay:10.37,2013-04-14 04:17:00,
2013-04-13 23:22:00,22.5,14.8,29.93,SSE,158,0.0,0.0,72,0.00,CLR,CLR,0.00,WeatherDisplay:10.37,2013-04-14 04:22:00,
2013-04-13 23:27:00,22.3,14.9,29.94,SSE,158,0.0,0.0,73,0.00,CLR,CLR,0.00,WeatherDisplay:10.37,2013-04-14 04:27:00,
2013-04-13 23:33:00,22.1,14.8,29.94,SSE,158,0.0,0.0,73,0.00,CLR,CLR,0.00,WeatherDisplay:10.37,2013-04-14 04:33:00,
2013-04-13 23:38:00,21.9,14.9,29.93,SE,135,0.0,0.0,74,0.00,CLR,CLR,0.00,WeatherDisplay:10.37,2013-04-14 04:38:00,
2013-04-13 23:43:00,21.7,14.7,29.93,ENE,68,0.0,0.0,74,0.00,CLR,CLR,0.00,WeatherDisplay:10.37,2013-04-14 04:43:00,
2013-04-13 23:48:00,21.6,14.6,29.92,NE,45,0.0,0.0,74,0.00,CLR,CLR,0.00,WeatherDisplay:10.37,2013-04-14 04:48:00,
2013-04-13 23:53:00,21.6,14.6,29.93,NNE,22,0.0,0.0,74,0.00,CLR,CLR,0.00,WeatherDisplay:10.37,2013-04-14 04:53:00,
2013-04-13 23:58:00,21.4,14.4,29.93,NE,45,0.0,0.0,74,0.00,CLR,CLR,0.00,WeatherDisplay:10.37,2013-04-14 04:58:00,